Skip Navigation LinksHome page > Weather > Current weather Skip Navigation Links

Current Weather

Greater Rockford, Rockford, Ill.

For information only: do not use for flight planning or navigation.
Latest weather
Observation time Tuesday, April 20, 2021 5:54 PM CDT
Local time Tuesday, April 20, 2021 6:16 PM CDT
Flight conditions Visual Meteorological Conditions
Winds
Wind direction variable
Wind speed 6 mph
Visibility 10 mi.
Sky condition
Ceiling 8,500 ft. overcast
Cloud layer overcast 8,500 ft.
Temperature 43°F
Dewpoint 21°F
Altimeter 30.07 in.Hg
Derived measurements
Relative humidity 41%
Wind chill 39°F
Density altitude -437 ft.
Sea-level pressure 30.08 in.Hg
Remarks
Automated weather observing station with precipitation discriminator.
METAR KRFD 202254Z VRB05KT 10SM OVC085 06/M06 A3007 RMK AO2 SLP187 T00611061

Settings

Location code

InnerDrive.Weather 4.0.6770.0 Release CLR 4.0.30319.42000
Copyright ©2018 Inner Drive Technology. All rights reserved. Portions Copyright ©1986-2018 David Braverman.

Find weather

Site navigation


Skip Navigation Links

Place info

Page info

PayPal - The safer, easier way to pay online!

Return home.

Copyright ©2021 Inner Drive Technology. Purveyors of fine, hand-crafted computer software. Page printed 2021-04-20T23:16:33 UTC.